sensor_id;sensor_type;location;lat;lon;timestamp;temperature;humidity
10660;DHT22;5378;53.206;13.316;2023-04-24T00:02:43;10.10;99.90
10660;DHT22;5378;53.206;13.316;2023-04-24T00:05:32;10.10;99.90
10660;DHT22;5378;53.206;13.316;2023-04-24T00:08:20;10.20;99.90
10660;DHT22;5378;53.206;13.316;2023-04-24T00:11:09;10.20;99.90
10660;DHT22;5378;53.206;13.316;2023-04-24T00:13:57;10.30;99.90
10660;DHT22;5378;53.206;13.316;2023-04-24T00:16:44;10.30;99.90
10660;DHT22;5378;53.206;13.316;2023-04-24T00:19:31;10.30;99.90
10660;DHT22;5378;53.206;13.316;2023-04-24T00:22:18;10.30;99.90
10660;DHT22;5378;53.206;13.316;2023-04-24T00:25:07;10.30;99.90
10660;DHT22;5378;53.206;13.316;2023-04-24T00:27:55;10.30;99.90
10660;DHT22;5378;53.206;13.316;2023-04-24T00:30:42;10.30;99.90
10660;DHT22;5378;53.206;13.316;2023-04-24T00:33:29;10.40;99.90
10660;DHT22;5378;53.206;13.316;2023-04-24T00:36:16;10.30;99.90
10660;DHT22;5378;53.206;13.316;2023-04-24T00:39:05;10.30;99.90
10660;DHT22;5378;53.206;13.316;2023-04-24T00:41:54;10.40;99.90
10660;DHT22;5378;53.206;13.316;2023-04-24T00:44:44;10.40;99.90
10660;DHT22;5378;53.206;13.316;2023-04-24T00:47:32;10.40;99.90
10660;DHT22;5378;53.206;13.316;2023-04-24T00:50:20;10.50;99.90
10660;DHT22;5378;53.206;13.316;2023-04-24T00:53:09;10.50;99.90
10660;DHT22;5378;53.206;13.316;2023-04-24T00:55:56;10.40;99.90
10660;DHT22;5378;53.206;13.316;2023-04-24T00:58:44;10.40;99.90
10660;DHT22;5378;53.206;13.316;2023-04-24T01:01:33;10.40;99.90
10660;DHT22;5378;53.206;13.316;2023-04-24T01:04:20;10.50;99.90
10660;DHT22;5378;53.206;13.316;2023-04-24T01:07:08;10.60;99.90
10660;DHT22;5378;53.206;13.316;2023-04-24T01:09:57;10.60;99.90
10660;DHT22;5378;53.206;13.316;2023-04-24T01:12:44;10.70;99.90
10660;DHT22;5378;53.206;13.316;2023-04-24T01:15:31;10.60;99.90
10660;DHT22;5378;53.206;13.316;2023-04-24T01:18:19;10.60;99.90
10660;DHT22;5378;53.206;13.316;2023-04-24T01:21:08;10.60;99.90
10660;DHT22;5378;53.206;13.316;2023-04-24T01:23:57;10.70;99.90
10660;DHT22;5378;53.206;13.316;2023-04-24T01:26:44;10.70;99.90
10660;DHT22;5378;53.206;13.316;2023-04-24T01:29:31;10.80;99.90
10660;DHT22;5378;53.206;13.316;2023-04-24T01:32:18;10.80;99.90
10660;DHT22;5378;53.206;13.316;2023-04-24T01:35:07;10.70;99.90
10660;DHT22;5378;53.206;13.316;2023-04-24T01:37:54;10.80;99.90
10660;DHT22;5378;53.206;13.316;2023-04-24T01:40:44;10.80;99.90
10660;DHT22;5378;53.206;13.316;2023-04-24T01:43:31;10.90;99.90
10660;DHT22;5378;53.206;13.316;2023-04-24T01:46:18;11.00;99.90
10660;DHT22;5378;53.206;13.316;2023-04-24T01:49:06;11.00;99.90
10660;DHT22;5378;53.206;13.316;2023-04-24T01:51:53;11.00;99.90
10660;DHT22;5378;53.206;13.316;2023-04-24T01:54:40;11.00;99.90
10660;DHT22;5378;53.206;13.316;2023-04-24T01:57:28;11.00;99.90
10660;DHT22;5378;53.206;13.316;2023-04-24T02:00:16;11.10;99.90
10660;DHT22;5378;53.206;13.316;2023-04-24T02:03:03;11.00;99.90
10660;DHT22;5378;53.206;13.316;2023-04-24T02:05:51;11.00;99.90
10660;DHT22;5378;53.206;13.316;2023-04-24T02:08:38;11.00;99.90
10660;DHT22;5378;53.206;13.316;2023-04-24T02:11:26;11.00;99.90
10660;DHT22;5378;53.206;13.316;2023-04-24T02:14:14;10.90;99.90
10660;DHT22;5378;53.206;13.316;2023-04-24T02:17:02;10.90;99.90
10660;DHT22;5378;53.206;13.316;2023-04-24T02:19:49;10.80;99.90
10660;DHT22;5378;53.206;13.316;2023-04-24T02:22:36;10.80;99.90
10660;DHT22;5378;53.206;13.316;2023-04-24T02:25:23;10.90;99.90
10660;DHT22;5378;53.206;13.316;2023-04-24T02:28:13;10.90;99.90
10660;DHT22;5378;53.206;13.316;2023-04-24T02:31:02;11.00;99.90
10660;DHT22;5378;53.206;13.316;2023-04-24T02:33:48;11.10;99.90
10660;DHT22;5378;53.206;13.316;2023-04-24T02:36:35;11.10;99.90
10660;DHT22;5378;53.206;13.316;2023-04-24T02:39:22;11.00;99.90
10660;DHT22;5378;53.206;13.316;2023-04-24T02:42:11;11.00;99.90
10660;DHT22;5378;53.206;13.316;2023-04-24T02:44:58;11.10;99.90
10660;DHT22;5378;53.206;13.316;2023-04-24T02:47:46;11.10;99.90
10660;DHT22;5378;53.206;13.316;2023-04-24T02:50:33;11.10;99.90
10660;DHT22;5378;53.206;13.316;2023-04-24T02:53:20;11.00;99.90
10660;DHT22;5378;53.206;13.316;2023-04-24T02:56:08;10.90;99.90
10660;DHT22;5378;53.206;13.316;2023-04-24T02:58:57;11.00;99.90
10660;DHT22;5378;53.206;13.316;2023-04-24T03:01:44;11.10;99.90
10660;DHT22;5378;53.206;13.316;2023-04-24T03:04:33;11.20;99.90
10660;DHT22;5378;53.206;13.316;2023-04-24T03:07:20;11.20;99.90
10660;DHT22;5378;53.206;13.316;2023-04-24T03:10:08;11.30;99.90
10660;DHT22;5378;53.206;13.316;2023-04-24T03:12:55;11.40;99.90
10660;DHT22;5378;53.206;13.316;2023-04-24T03:15:42;11.40;99.90
10660;DHT22;5378;53.206;13.316;2023-04-24T03:18:30;11.50;99.90
10660;DHT22;5378;53.206;13.316;2023-04-24T03:21:18;11.60;99.90
10660;DHT22;5378;53.206;13.316;2023-04-24T03:24:06;11.50;99.90
10660;DHT22;5378;53.206;13.316;2023-04-24T03:26:53;11.40;99.90
10660;DHT22;5378;53.206;13.316;2023-04-24T03:29:59;11.50;99.90
10660;DHT22;5378;53.206;13.316;2023-04-24T03:32:57;11.50;99.90
10660;DHT22;5378;53.206;13.316;2023-04-24T03:35:48;11.50;99.90
10660;DHT22;5378;53.206;13.316;2023-04-24T03:38:36;11.50;99.90
10660;DHT22;5378;53.206;13.316;2023-04-24T03:41:42;11.60;99.90
10660;DHT22;5378;53.206;13.316;2023-04-24T03:44:35;11.70;99.90
10660;DHT22;5378;53.206;13.316;2023-04-24T03:47:22;11.70;99.90
10660;DHT22;5378;53.206;13.316;2023-04-24T03:50:12;11.80;99.90
10660;DHT22;5378;53.206;13.316;2023-04-24T03:53:00;11.90;99.90
10660;DHT22;5378;53.206;13.316;2023-04-24T03:55:55;11.90;99.90
10660;DHT22;5378;53.206;13.316;2023-04-24T03:58:43;11.90;99.90
10660;DHT22;5378;53.206;13.316;2023-04-24T04:01:30;11.90;99.90
10660;DHT22;5378;53.206;13.316;2023-04-24T04:04:22;11.90;99.90
10660;DHT22;5378;53.206;13.316;2023-04-24T04:07:09;11.80;99.90
10660;DHT22;5378;53.206;13.316;2023-04-24T04:09:57;11.90;99.90
10660;DHT22;5378;53.206;13.316;2023-04-24T04:12:45;11.80;99.90
10660;DHT22;5378;53.206;13.316;2023-04-24T04:15:32;11.80;99.90
10660;DHT22;5378;53.206;13.316;2023-04-24T04:18:20;11.70;99.90
10660;DHT22;5378;53.206;13.316;2023-04-24T04:21:06;11.80;99.90
10660;DHT22;5378;53.206;13.316;2023-04-24T04:23:54;11.80;99.90
10660;DHT22;5378;53.206;13.316;2023-04-24T04:26:51;11.90;99.90
10660;DHT22;5378;53.206;13.316;2023-04-24T04:29:54;11.90;99.90
10660;DHT22;5378;53.206;13.316;2023-04-24T04:32:42;12.10;99.90
10660;DHT22;5378;53.206;13.316;2023-04-24T04:35:29;12.10;99.90
10660;DHT22;5378;53.206;13.316;2023-04-24T04:38:18;12.10;99.90
10660;DHT22;5378;53.206;13.316;2023-04-24T04:41:11;12.10;99.90
10660;DHT22;5378;53.206;13.316;2023-04-24T04:43:59;12.10;99.90
10660;DHT22;5378;53.206;13.316;2023-04-24T04:46:48;12.20;99.90
10660;DHT22;5378;53.206;13.316;2023-04-24T04:49:45;12.20;99.90
10660;DHT22;5378;53.206;13.316;2023-04-24T04:52:37;12.30;99.90
10660;DHT22;5378;53.206;13.316;2023-04-24T04:55:38;12.20;99.90
10660;DHT22;5378;53.206;13.316;2023-04-24T04:58:33;12.20;99.90
10660;DHT22;5378;53.206;13.316;2023-04-24T05:01:21;12.30;99.90
10660;DHT22;5378;53.206;13.316;2023-04-24T05:04:11;12.30;99.90
10660;DHT22;5378;53.206;13.316;2023-04-24T05:06:58;12.30;99.90
10660;DHT22;5378;53.206;13.316;2023-04-24T05:09:48;12.30;99.90
10660;DHT22;5378;53.206;13.316;2023-04-24T05:12:35;12.30;99.90
10660;DHT22;5378;53.206;13.316;2023-04-24T05:15:22;12.30;99.90
10660;DHT22;5378;53.206;13.316;2023-04-24T05:18:09;12.30;99.90
10660;DHT22;5378;53.206;13.316;2023-04-24T05:20:58;12.40;99.90
10660;DHT22;5378;53.206;13.316;2023-04-24T05:23:45;12.60;99.90
10660;DHT22;5378;53.206;13.316;2023-04-24T05:26:37;12.80;99.90
10660;DHT22;5378;53.206;13.316;2023-04-24T05:29:26;14.30;99.90
10660;DHT22;5378;53.206;13.316;2023-04-24T05:32:13;16.20;99.90
10660;DHT22;5378;53.206;13.316;2023-04-24T05:35:00;18.10;99.90
10660;DHT22;5378;53.206;13.316;2023-04-24T05:37:48;19.40;99.90
10660;DHT22;5378;53.206;13.316;2023-04-24T05:40:36;19.90;99.90
10660;DHT22;5378;53.206;13.316;2023-04-24T05:43:23;19.80;99.90
10660;DHT22;5378;53.206;13.316;2023-04-24T05:46:11;19.70;99.90
10660;DHT22;5378;53.206;13.316;2023-04-24T05:48:58;19.20;99.90
10660;DHT22;5378;53.206;13.316;2023-04-24T05:51:46;18.40;99.90
10660;DHT22;5378;53.206;13.316;2023-04-24T05:54:35;17.60;99.90
10660;DHT22;5378;53.206;13.316;2023-04-24T05:57:23;16.80;99.90
10660;DHT22;5378;53.206;13.316;2023-04-24T06:00:18;16.20;99.90
10660;DHT22;5378;53.206;13.316;2023-04-24T06:03:15;15.80;99.90
10660;DHT22;5378;53.206;13.316;2023-04-24T06:06:02;15.30;99.90
10660;DHT22;5378;53.206;13.316;2023-04-24T06:08:50;15.10;99.90
10660;DHT22;5378;53.206;13.316;2023-04-24T06:11:38;14.80;99.90
10660;DHT22;5378;53.206;13.316;2023-04-24T06:14:28;14.60;99.90
10660;DHT22;5378;53.206;13.316;2023-04-24T06:17:32;14.50;99.90
10660;DHT22;5378;53.206;13.316;2023-04-24T06:20:19;14.40;99.90
10660;DHT22;5378;53.206;13.316;2023-04-24T06:23:07;14.50;99.90
10660;DHT22;5378;53.206;13.316;2023-04-24T06:25:53;16.10;99.90
10660;DHT22;5378;53.206;13.316;2023-04-24T06:28:42;18.00;99.90
10660;DHT22;5378;53.206;13.316;2023-04-24T06:31:29;19.50;99.90
10660;DHT22;5378;53.206;13.316;2023-04-24T06:34:16;20.80;99.90
10660;DHT22;5378;53.206;13.316;2023-04-24T06:37:02;22.30;99.90
10660;DHT22;5378;53.206;13.316;2023-04-24T06:39:50;23.90;99.90
10660;DHT22;5378;53.206;13.316;2023-04-24T06:42:36;23.50;99.90
10660;DHT22;5378;53.206;13.316;2023-04-24T06:45:28;22.20;99.90
10660;DHT22;5378;53.206;13.316;2023-04-24T06:48:15;20.80;99.90
10660;DHT22;5378;53.206;13.316;2023-04-24T06:51:02;19.70;99.90
10660;DHT22;5378;53.206;13.316;2023-04-24T06:53:50;19.10;99.90
10660;DHT22;5378;53.206;13.316;2023-04-24T06:56:38;19.00;99.90
10660;DHT22;5378;53.206;13.316;2023-04-24T06:59:25;20.50;99.90
10660;DHT22;5378;53.206;13.316;2023-04-24T07:02:13;22.40;99.90
10660;DHT22;5378;53.206;13.316;2023-04-24T07:05:00;23.90;99.90
10660;DHT22;5378;53.206;13.316;2023-04-24T07:07:48;23.90;99.90
10660;DHT22;5378;53.206;13.316;2023-04-24T07:10:35;22.90;99.90
10660;DHT22;5378;53.206;13.316;2023-04-24T07:13:22;21.90;99.90
10660;DHT22;5378;53.206;13.316;2023-04-24T07:16:09;21.30;99.90
10660;DHT22;5378;53.206;13.316;2023-04-24T07:18:58;21.10;99.90
10660;DHT22;5378;53.206;13.316;2023-04-24T07:21:45;21.20;99.90
10660;DHT22;5378;53.206;13.316;2023-04-24T07:24:32;21.40;99.90
10660;DHT22;5378;53.206;13.316;2023-04-24T07:27:19;21.90;99.90
10660;DHT22;5378;53.206;13.316;2023-04-24T07:30:07;22.70;99.90
10660;DHT22;5378;53.206;13.316;2023-04-24T07:32:54;23.40;99.90
10660;DHT22;5378;53.206;13.316;2023-04-24T07:35:43;23.80;99.90
10660;DHT22;5378;53.206;13.316;2023-04-24T07:38:30;24.40;99.90
10660;DHT22;5378;53.206;13.316;2023-04-24T07:41:17;25.10;99.90
10660;DHT22;5378;53.206;13.316;2023-04-24T07:44:04;26.50;99.90
10660;DHT22;5378;53.206;13.316;2023-04-24T07:46:51;27.20;99.20
10660;DHT22;5378;53.206;13.316;2023-04-24T07:49:38;27.80;97.20
10660;DHT22;5378;53.206;13.316;2023-04-24T07:52:26;28.20;96.00
10660;DHT22;5378;53.206;13.316;2023-04-24T07:55:13;28.50;93.00
10660;DHT22;5378;53.206;13.316;2023-04-24T07:58:00;28.70;91.60
10660;DHT22;5378;53.206;13.316;2023-04-24T08:00:47;28.70;91.30
10660;DHT22;5378;53.206;13.316;2023-04-24T08:03:34;28.00;90.30
10660;DHT22;5378;53.206;13.316;2023-04-24T08:06:22;27.20;90.80
10660;DHT22;5378;53.206;13.316;2023-04-24T08:09:10;27.20;91.10
10660;DHT22;5378;53.206;13.316;2023-04-24T08:11:57;26.30;91.40
10660;DHT22;5378;53.206;13.316;2023-04-24T08:14:44;25.40;92.20
10660;DHT22;5378;53.206;13.316;2023-04-24T08:17:31;25.90;91.90
10660;DHT22;5378;53.206;13.316;2023-04-24T08:20:18;26.00;91.20
10660;DHT22;5378;53.206;13.316;2023-04-24T08:23:05;26.20;91.20
10660;DHT22;5378;53.206;13.316;2023-04-24T08:25:53;25.90;91.00
10660;DHT22;5378;53.206;13.316;2023-04-24T08:28:40;25.80;91.70
10660;DHT22;5378;53.206;13.316;2023-04-24T08:31:27;26.30;91.10
10660;DHT22;5378;53.206;13.316;2023-04-24T08:34:14;26.80;90.80
10660;DHT22;5378;53.206;13.316;2023-04-24T08:37:02;27.00;90.80
10660;DHT22;5378;53.206;13.316;2023-04-24T08:39:50;27.20;89.20
10660;DHT22;5378;53.206;13.316;2023-04-24T08:42:39;27.50;87.20
10660;DHT22;5378;53.206;13.316;2023-04-24T08:45:29;27.60;88.10
10660;DHT22;5378;53.206;13.316;2023-04-24T08:48:16;26.60;88.50
10660;DHT22;5378;53.206;13.316;2023-04-24T08:51:08;25.50;90.10
10660;DHT22;5378;53.206;13.316;2023-04-24T08:53:57;24.90;91.80
10660;DHT22;5378;53.206;13.316;2023-04-24T08:56:44;24.90;92.70
10660;DHT22;5378;53.206;13.316;2023-04-24T08:59:35;25.80;90.60
10660;DHT22;5378;53.206;13.316;2023-04-24T09:02:23;25.50;90.10
10660;DHT22;5378;53.206;13.316;2023-04-24T09:05:10;24.60;90.80
10660;DHT22;5378;53.206;13.316;2023-04-24T09:07:59;23.50;92.00
10660;DHT22;5378;53.206;13.316;2023-04-24T09:10:48;22.50;93.20
10660;DHT22;5378;53.206;13.316;2023-04-24T09:13:36;22.40;94.70
10660;DHT22;5378;53.206;13.316;2023-04-24T09:16:26;22.50;95.40
10660;DHT22;5378;53.206;13.316;2023-04-24T09:19:13;22.70;95.20
10660;DHT22;5378;53.206;13.316;2023-04-24T09:22:04;22.60;95.20
10660;DHT22;5378;53.206;13.316;2023-04-24T09:25:02;22.00;95.20
10660;DHT22;5378;53.206;13.316;2023-04-24T09:27:53;21.60;96.90
10660;DHT22;5378;53.206;13.316;2023-04-24T09:30:41;21.30;97.50
10660;DHT22;5378;53.206;13.316;2023-04-24T09:33:29;21.00;97.80
10660;DHT22;5378;53.206;13.316;2023-04-24T09:36:17;20.50;97.90
10660;DHT22;5378;53.206;13.316;2023-04-24T09:39:05;20.10;99.00
10660;DHT22;5378;53.206;13.316;2023-04-24T09:41:55;20.00;99.90
10660;DHT22;5378;53.206;13.316;2023-04-24T09:44:43;20.20;99.90
10660;DHT22;5378;53.206;13.316;2023-04-24T09:47:36;20.30;99.90
10660;DHT22;5378;53.206;13.316;2023-04-24T09:50:24;20.50;99.00
10660;DHT22;5378;53.206;13.316;2023-04-24T09:53:11;20.60;99.90
10660;DHT22;5378;53.206;13.316;2023-04-24T09:56:02;21.20;99.10
10660;DHT22;5378;53.206;13.316;2023-04-24T09:58:50;21.30;99.20
10660;DHT22;5378;53.206;13.316;2023-04-24T10:01:37;21.30;98.10
10660;DHT22;5378;53.206;13.316;2023-04-24T10:04:28;21.00;98.50
10660;DHT22;5378;53.206;13.316;2023-04-24T10:07:17;20.70;99.30
10660;DHT22;5378;53.206;13.316;2023-04-24T10:10:05;20.50;99.90
10660;DHT22;5378;53.206;13.316;2023-04-24T10:12:53;20.40;99.90
10660;DHT22;5378;53.206;13.316;2023-04-24T10:15:41;20.40;99.90
10660;DHT22;5378;53.206;13.316;2023-04-24T10:18:29;20.40;99.80
10660;DHT22;5378;53.206;13.316;2023-04-24T10:21:18;20.40;99.90
10660;DHT22;5378;53.206;13.316;2023-04-24T10:24:07;20.70;99.90
10660;DHT22;5378;53.206;13.316;2023-04-24T10:26:55;21.10;99.90
10660;DHT22;5378;53.206;13.316;2023-04-24T10:29:43;21.30;98.20
10660;DHT22;5378;53.206;13.316;2023-04-24T10:32:30;21.30;98.20
10660;DHT22;5378;53.206;13.316;2023-04-24T10:35:18;21.20;98.30
10660;DHT22;5378;53.206;13.316;2023-04-24T10:38:09;21.30;98.60
10660;DHT22;5378;53.206;13.316;2023-04-24T10:41:07;21.30;97.90
10660;DHT22;5378;53.206;13.316;2023-04-24T10:44:04;21.40;98.40
10660;DHT22;5378;53.206;13.316;2023-04-24T10:46:54;21.30;98.70
10660;DHT22;5378;53.206;13.316;2023-04-24T10:49:41;21.20;98.20
10660;DHT22;5378;53.206;13.316;2023-04-24T10:52:43;20.80;98.60
10660;DHT22;5378;53.206;13.316;2023-04-24T10:55:42;20.70;98.40
10660;DHT22;5378;53.206;13.316;2023-04-24T10:58:39;20.70;99.50
10660;DHT22;5378;53.206;13.316;2023-04-24T11:01:28;20.50;98.90
10660;DHT22;5378;53.206;13.316;2023-04-24T11:04:28;20.40;99.90
10660;DHT22;5378;53.206;13.316;2023-04-24T11:07:16;20.50;99.90
10660;DHT22;5378;53.206;13.316;2023-04-24T11:10:03;20.50;99.20
10660;DHT22;5378;53.206;13.316;2023-04-24T11:12:51;20.50;99.10
10660;DHT22;5378;53.206;13.316;2023-04-24T11:15:41;20.50;99.50
10660;DHT22;5378;53.206;13.316;2023-04-24T11:18:37;20.10;99.90
10660;DHT22;5378;53.206;13.316;2023-04-24T11:21:24;20.20;99.90
10660;DHT22;5378;53.206;13.316;2023-04-24T11:24:33;20.20;99.90
10660;DHT22;5378;53.206;13.316;2023-04-24T11:27:30;20.50;99.90
10660;DHT22;5378;53.206;13.316;2023-04-24T11:30:19;20.40;99.90
10660;DHT22;5378;53.206;13.316;2023-04-24T11:33:08;20.70;99.90
10660;DHT22;5378;53.206;13.316;2023-04-24T11:35:55;20.70;99.50
10660;DHT22;5378;53.206;13.316;2023-04-24T11:38:42;20.80;99.10
10660;DHT22;5378;53.206;13.316;2023-04-24T11:41:29;21.00;99.50
10660;DHT22;5378;53.206;13.316;2023-04-24T11:44:20;20.90;99.90
10660;DHT22;5378;53.206;13.316;2023-04-24T11:47:08;20.90;99.00
10660;DHT22;5378;53.206;13.316;2023-04-24T11:49:58;20.80;99.30
10660;DHT22;5378;53.206;13.316;2023-04-24T11:52:46;20.70;99.90
10660;DHT22;5378;53.206;13.316;2023-04-24T11:55:34;20.60;99.70
10660;DHT22;5378;53.206;13.316;2023-04-24T11:58:21;20.30;99.90
10660;DHT22;5378;53.206;13.316;2023-04-24T12:01:08;19.80;99.90
10660;DHT22;5378;53.206;13.316;2023-04-24T12:03:59;19.40;99.90
10660;DHT22;5378;53.206;13.316;2023-04-24T12:07:00;18.90;99.90
10660;DHT22;5378;53.206;13.316;2023-04-24T12:09:50;18.20;99.90
10660;DHT22;5378;53.206;13.316;2023-04-24T12:12:37;17.70;99.90
10660;DHT22;5378;53.206;13.316;2023-04-24T12:15:24;17.60;99.90
10660;DHT22;5378;53.206;13.316;2023-04-24T12:18:12;17.50;99.90
10660;DHT22;5378;53.206;13.316;2023-04-24T12:21:20;17.60;99.90
10660;DHT22;5378;53.206;13.316;2023-04-24T12:24:09;17.80;99.90
10660;DHT22;5378;53.206;13.316;2023-04-24T12:26:56;18.10;99.90
10660;DHT22;5378;53.206;13.316;2023-04-24T12:29:51;18.50;99.90
10660;DHT22;5378;53.206;13.316;2023-04-24T12:32:42;18.90;99.90
10660;DHT22;5378;53.206;13.316;2023-04-24T12:35:31;19.10;99.90
10660;DHT22;5378;53.206;13.316;2023-04-24T12:38:22;19.60;99.90
10660;DHT22;5378;53.206;13.316;2023-04-24T12:41:12;19.60;99.90
10660;DHT22;5378;53.206;13.316;2023-04-24T12:43:59;19.70;99.90
10660;DHT22;5378;53.206;13.316;2023-04-24T12:46:46;19.80;99.90
10660;DHT22;5378;53.206;13.316;2023-04-24T12:49:33;19.70;99.90
10660;DHT22;5378;53.206;13.316;2023-04-24T12:52:21;19.70;99.90
10660;DHT22;5378;53.206;13.316;2023-04-24T12:55:09;19.50;99.90
10660;DHT22;5378;53.206;13.316;2023-04-24T12:57:59;19.40;99.90
10660;DHT22;5378;53.206;13.316;2023-04-24T13:00:46;19.00;99.90
10660;DHT22;5378;53.206;13.316;2023-04-24T13:03:33;18.10;99.90
10660;DHT22;5378;53.206;13.316;2023-04-24T13:06:20;16.90;99.90
10660;DHT22;5378;53.206;13.316;2023-04-24T13:09:07;15.80;99.90
10660;DHT22;5378;53.206;13.316;2023-04-24T13:11:55;15.20;99.90
10660;DHT22;5378;53.206;13.316;2023-04-24T13:14:44;14.90;99.90
10660;DHT22;5378;53.206;13.316;2023-04-24T13:17:32;14.60;99.90
10660;DHT22;5378;53.206;13.316;2023-04-24T13:20:19;14.50;99.90
10660;DHT22;5378;53.206;13.316;2023-04-24T13:23:06;14.40;99.90
10660;DHT22;5378;53.206;13.316;2023-04-24T13:25:53;14.40;99.90
10660;DHT22;5378;53.206;13.316;2023-04-24T13:28:41;14.30;99.90
10660;DHT22;5378;53.206;13.316;2023-04-24T13:31:29;14.40;99.90
10660;DHT22;5378;53.206;13.316;2023-04-24T13:34:16;14.50;99.90
10660;DHT22;5378;53.206;13.316;2023-04-24T13:37:04;14.60;99.90
10660;DHT22;5378;53.206;13.316;2023-04-24T13:39:52;14.70;99.90
10660;DHT22;5378;53.206;13.316;2023-04-24T13:42:39;14.80;99.90
10660;DHT22;5378;53.206;13.316;2023-04-24T13:45:26;15.10;99.90
10660;DHT22;5378;53.206;13.316;2023-04-24T13:48:15;15.40;99.90
10660;DHT22;5378;53.206;13.316;2023-04-24T13:51:02;15.60;99.90
10660;DHT22;5378;53.206;13.316;2023-04-24T13:53:49;15.70;99.90
10660;DHT22;5378;53.206;13.316;2023-04-24T13:56:36;15.70;99.90
10660;DHT22;5378;53.206;13.316;2023-04-24T13:59:23;15.70;99.90
10660;DHT22;5378;53.206;13.316;2023-04-24T14:02:10;15.80;99.90
10660;DHT22;5378;53.206;13.316;2023-04-24T14:04:59;15.80;99.90
10660;DHT22;5378;53.206;13.316;2023-04-24T14:07:46;15.90;99.90
10660;DHT22;5378;53.206;13.316;2023-04-24T14:10:36;16.00;99.90
10660;DHT22;5378;53.206;13.316;2023-04-24T14:13:23;16.10;99.90
10660;DHT22;5378;53.206;13.316;2023-04-24T14:16:11;16.20;99.90
10660;DHT22;5378;53.206;13.316;2023-04-24T14:18:58;16.30;99.90
10660;DHT22;5378;53.206;13.316;2023-04-24T14:21:46;16.40;99.90
10660;DHT22;5378;53.206;13.316;2023-04-24T14:24:33;16.50;99.90
10660;DHT22;5378;53.206;13.316;2023-04-24T14:27:20;16.50;99.90
10660;DHT22;5378;53.206;13.316;2023-04-24T14:30:08;16.40;99.90
10660;DHT22;5378;53.206;13.316;2023-04-24T14:32:55;16.30;99.90
10660;DHT22;5378;53.206;13.316;2023-04-24T14:35:42;16.30;99.90
10660;DHT22;5378;53.206;13.316;2023-04-24T14:38:31;16.30;99.90
10660;DHT22;5378;53.206;13.316;2023-04-24T14:41:18;16.40;99.90
10660;DHT22;5378;53.206;13.316;2023-04-24T14:44:06;16.40;99.90
10660;DHT22;5378;53.206;13.316;2023-04-24T14:46:52;16.30;99.90
10660;DHT22;5378;53.206;13.316;2023-04-24T14:49:40;16.20;99.90
10660;DHT22;5378;53.206;13.316;2023-04-24T14:52:27;16.20;99.90
10660;DHT22;5378;53.206;13.316;2023-04-24T14:55:15;16.00;99.90
10660;DHT22;5378;53.206;13.316;2023-04-24T14:58:03;15.70;99.90
10660;DHT22;5378;53.206;13.316;2023-04-24T15:00:50;15.30;99.90
10660;DHT22;5378;53.206;13.316;2023-04-24T15:03:40;15.00;99.90
10660;DHT22;5378;53.206;13.316;2023-04-24T15:06:29;15.00;99.90
10660;DHT22;5378;53.206;13.316;2023-04-24T15:09:17;15.10;99.90
10660;DHT22;5378;53.206;13.316;2023-04-24T15:12:05;15.20;99.90
10660;DHT22;5378;53.206;13.316;2023-04-24T15:14:52;15.20;99.90
10660;DHT22;5378;53.206;13.316;2023-04-24T15:17:40;15.30;99.90
10660;DHT22;5378;53.206;13.316;2023-04-24T15:20:27;15.30;99.90
10660;DHT22;5378;53.206;13.316;2023-04-24T15:23:14;15.40;99.90
10660;DHT22;5378;53.206;13.316;2023-04-24T15:26:01;15.40;99.90
10660;DHT22;5378;53.206;13.316;2023-04-24T15:28:50;15.70;99.90
10660;DHT22;5378;53.206;13.316;2023-04-24T15:31:37;15.70;99.90
10660;DHT22;5378;53.206;13.316;2023-04-24T15:34:26;15.70;99.90
10660;DHT22;5378;53.206;13.316;2023-04-24T15:37:13;15.70;99.90
10660;DHT22;5378;53.206;13.316;2023-04-24T15:40:00;15.70;99.90
10660;DHT22;5378;53.206;13.316;2023-04-24T15:42:49;15.80;99.90
10660;DHT22;5378;53.206;13.316;2023-04-24T15:45:38;16.00;99.90
10660;DHT22;5378;53.206;13.316;2023-04-24T15:48:25;16.00;99.90
10660;DHT22;5378;53.206;13.316;2023-04-24T15:51:12;16.20;99.90
10660;DHT22;5378;53.206;13.316;2023-04-24T15:53:59;16.20;99.90
10660;DHT22;5378;53.206;13.316;2023-04-24T15:56:46;16.30;99.90
10660;DHT22;5378;53.206;13.316;2023-04-24T15:59:33;16.40;99.90
10660;DHT22;5378;53.206;13.316;2023-04-24T16:02:22;16.30;99.90
10660;DHT22;5378;53.206;13.316;2023-04-24T16:05:09;16.20;99.90
10660;DHT22;5378;53.206;13.316;2023-04-24T16:07:56;16.00;99.90
10660;DHT22;5378;53.206;13.316;2023-04-24T16:10:43;16.00;99.90
10660;DHT22;5378;53.206;13.316;2023-04-24T16:13:32;15.90;99.90
10660;DHT22;5378;53.206;13.316;2023-04-24T16:16:19;15.80;99.90
10660;DHT22;5378;53.206;13.316;2023-04-24T16:19:07;15.80;99.90
10660;DHT22;5378;53.206;13.316;2023-04-24T16:21:55;15.70;99.90
10660;DHT22;5378;53.206;13.316;2023-04-24T16:24:42;15.70;99.90
10660;DHT22;5378;53.206;13.316;2023-04-24T16:27:31;15.70;99.90
10660;DHT22;5378;53.206;13.316;2023-04-24T16:30:19;15.70;99.90
10660;DHT22;5378;53.206;13.316;2023-04-24T16:33:06;15.70;99.90
10660;DHT22;5378;53.206;13.316;2023-04-24T16:35:55;15.70;99.90
10660;DHT22;5378;53.206;13.316;2023-04-24T16:38:42;15.70;99.90
10660;DHT22;5378;53.206;13.316;2023-04-24T16:41:30;15.70;99.90
10660;DHT22;5378;53.206;13.316;2023-04-24T16:44:17;15.60;99.90
10660;DHT22;5378;53.206;13.316;2023-04-24T16:47:05;15.50;99.90
10660;DHT22;5378;53.206;13.316;2023-04-24T16:49:52;15.50;99.90
10660;DHT22;5378;53.206;13.316;2023-04-24T16:52:40;15.40;99.90
10660;DHT22;5378;53.206;13.316;2023-04-24T16:55:28;15.40;99.90
10660;DHT22;5378;53.206;13.316;2023-04-24T16:58:15;15.50;99.90
10660;DHT22;5378;53.206;13.316;2023-04-24T17:01:02;15.60;99.90
10660;DHT22;5378;53.206;13.316;2023-04-24T17:03:49;15.70;99.90
10660;DHT22;5378;53.206;13.316;2023-04-24T17:06:36;15.70;99.90
10660;DHT22;5378;53.206;13.316;2023-04-24T17:09:25;15.70;99.90
10660;DHT22;5378;53.206;13.316;2023-04-24T17:12:12;15.40;99.90
10660;DHT22;5378;53.206;13.316;2023-04-24T17:14:58;15.40;99.90
10660;DHT22;5378;53.206;13.316;2023-04-24T17:17:46;15.10;99.90
10660;DHT22;5378;53.206;13.316;2023-04-24T17:20:34;14.80;99.90
10660;DHT22;5378;53.206;13.316;2023-04-24T17:23:20;14.60;99.90
10660;DHT22;5378;53.206;13.316;2023-04-24T17:26:09;14.50;99.90
10660;DHT22;5378;53.206;13.316;2023-04-24T17:28:57;14.20;99.90
10660;DHT22;5378;53.206;13.316;2023-04-24T17:31:45;14.30;99.90
10660;DHT22;5378;53.206;13.316;2023-04-24T17:34:32;14.30;99.90
10660;DHT22;5378;53.206;13.316;2023-04-24T17:37:19;14.30;99.90
10660;DHT22;5378;53.206;13.316;2023-04-24T17:40:08;14.20;99.90
10660;DHT22;5378;53.206;13.316;2023-04-24T17:42:57;14.10;99.90
10660;DHT22;5378;53.206;13.316;2023-04-24T17:45:45;14.10;99.90